KPHD/PHD METAR and TAF weather

Enter ICAO airport designator
Station Type Date Time Source
KPHD METAR 2019/06/26 19:53 UTC NOAA

KPHD 261953Z AUTO 23007KT 190V250 10SM SCT055 29/18 A3010 RMK AO2 SLP188 T02940183


Station Type Date Time Source
KPHD Decoded METAR 2019/06/26 19:53 UTC NOAA

NEW PHILADELPHIA CLEVER FLD, OH, United States (KPHD) 40-28N 81-25W 272M
Jun 26, 2019 - 03:53 PM EDT / 2019.06.26 1953 UTC
Wind: from the SW (230 degrees) at 8 MPH (7 KT) (direction variable):0
Visibility: 10 mile(s):0
Sky conditions: partly cloudy
Temperature: 84.9 F (29.4 C)
Dew Point: 64.9 F (18.3 C)
Relative Humidity: 51%
Pressure (altimeter): 30.1 in. Hg (1019 hPa)
ob: KPHD 261953Z AUTO 23007KT 190V250 10SM SCT055 29/18 A3010 RMK AO2 SLP188 T02940183
cycle: 20

Station Type Date Time Source
KPHD TAF UTC NOAA

Error!

Example: see airport list